AFR174 LGAV-LLBG
Flight info
| Callsign | AFR174 |
|---|---|
| Flight time | 1h 45m |
| Altitude | 23000 |
| Route | KEA N132 TUXEM/N0484F390 UT514 PEXAN UM601 MADEX UN132 KUPIS UN134 VANZA DCT PIKOG L609 ZUKKO |
| Aircraft | B744/H-SDE3FGHIM1M2RWXY/LB1 |
Departure
| Time | 2026-05-07 13:14 |
|---|---|
| Airport | Athens Eleftherios Venizelos International Airport (LGAV) |
Arrival
| Time | 2026-05-07 15:00 |
|---|---|
| Airport | Ben Gurion International Airport (LLBG) |
| Time | Latitude | Longitude | Altitude | Speed | Heading |
|---|---|---|---|---|---|
| 2026-05-07 12:38 | 37.93283 | 23.94546 | 290 ft | 0 kts | 307° |
| 2026-05-07 13:01 | 37.93277 | 23.94557 | 291 ft | 2 kts | 307° |
| 2026-05-07 13:02 | 37.93268 | 23.94572 | 291 ft | 2 kts | 307° |
| 2026-05-07 13:02 | 37.93259 | 23.94587 | 291 ft | 2 kts | 307° |
| 2026-05-07 13:02 | 37.93249 | 23.94602 | 291 ft | 2 kts | 326° |
| 2026-05-07 13:02 | 37.93235 | 23.94609 | 291 ft | 2 kts | 353° |
| 2026-05-07 13:03 | 37.93220 | 23.94608 | 291 ft | 2 kts | 18° |
| 2026-05-07 13:03 | 37.93209 | 23.94603 | 290 ft | 0 kts | 36° |
| 2026-05-07 13:03 | 37.93204 | 23.94599 | 290 ft | 1 kts | 38° |
| 2026-05-07 13:03 | 37.93202 | 23.94597 | 290 ft | 0 kts | 38° |
| 2026-05-07 13:04 | 37.93203 | 23.94597 | 290 ft | 0 kts | 38° |
| 2026-05-07 13:07 | 37.93204 | 23.94599 | 290 ft | 0 kts | 36° |
| 2026-05-07 13:07 | 37.93208 | 23.94602 | 290 ft | 1 kts | 34° |
| 2026-05-07 13:07 | 37.93219 | 23.94612 | 291 ft | 2 kts | 34° |
| 2026-05-07 13:07 | 37.93234 | 23.94625 | 292 ft | 2 kts | 36° |
| 2026-05-07 13:08 | 37.93247 | 23.94637 | 293 ft | 3 kts | 36° |
| 2026-05-07 13:08 | 37.93274 | 23.94663 | 295 ft | 6 kts | 37° |
| 2026-05-07 13:08 | 37.93326 | 23.94712 | 297 ft | 11 kts | 37° |
| 2026-05-07 13:08 | 37.93390 | 23.94772 | 298 ft | 11 kts | 36° |
| 2026-05-07 13:09 | 37.93435 | 23.94828 | 299 ft | 6 kts | 73° |
| 2026-05-07 13:09 | 37.93422 | 23.94895 | 295 ft | 10 kts | 114° |
| 2026-05-07 13:09 | 37.93385 | 23.94987 | 290 ft | 13 kts | 101° |
| 2026-05-07 13:09 | 37.93432 | 23.95073 | 288 ft | 15 kts | 37° |
| 2026-05-07 13:10 | 37.93545 | 23.95182 | 284 ft | 25 kts | 37° |
| 2026-05-07 13:10 | 37.93709 | 23.95338 | 281 ft | 33 kts | 37° |
| 2026-05-07 13:10 | 37.93918 | 23.95537 | 280 ft | 40 kts | 36° |
| 2026-05-07 13:10 | 37.94139 | 23.95746 | 282 ft | 39 kts | 37° |
| 2026-05-07 13:11 | 37.94354 | 23.95952 | 288 ft | 37 kts | 37° |
| 2026-05-07 13:11 | 37.94557 | 23.96144 | 295 ft | 35 kts | 37° |
| 2026-05-07 13:11 | 37.94721 | 23.96301 | 301 ft | 25 kts | 37° |
| 2026-05-07 13:11 | 37.94864 | 23.96437 | 304 ft | 25 kts | 37° |
| 2026-05-07 13:12 | 37.94997 | 23.96563 | 311 ft | 22 kts | 38° |
| 2026-05-07 13:12 | 37.95116 | 23.96678 | 316 ft | 20 kts | 37° |
| 2026-05-07 13:12 | 37.95222 | 23.96778 | 323 ft | 17 kts | 37° |
| 2026-05-07 13:12 | 37.95261 | 23.96816 | 326 ft | 0 kts | 37° |
| 2026-05-07 13:13 | 37.95272 | 23.96826 | 327 ft | 6 kts | 37° |
| 2026-05-07 13:13 | 37.95343 | 23.96894 | 332 ft | 19 kts | 37° |
| 2026-05-07 13:13 | 37.95319 | 23.97024 | 334 ft | 22 kts | 162° |
| 2026-05-07 13:13 | 37.95174 | 23.97007 | 331 ft | 12 kts | 212° |
| 2026-05-07 13:14 | 37.95023 | 23.96866 | 320 ft | 63 kts | 217° |
| 2026-05-07 13:14 | 37.94408 | 23.96284 | 300 ft | 153 kts | 216° |
| 2026-05-07 13:14 | 37.93426 | 23.95370 | 749 ft | 191 kts | 216° |
| 2026-05-07 13:14 | 37.92236 | 23.94325 | 1542 ft | 229 kts | 214° |
| 2026-05-07 13:15 | 37.90813 | 23.93335 | 2441 ft | 243 kts | 197° |
| 2026-05-07 13:15 | 37.89135 | 23.93188 | 3373 ft | 252 kts | 178° |
| 2026-05-07 13:15 | 37.87350 | 23.93513 | 4186 ft | 263 kts | 168° |
| 2026-05-07 13:15 | 37.85516 | 23.94098 | 4707 ft | 287 kts | 169° |
| 2026-05-07 13:16 | 37.83825 | 23.95232 | 5657 ft | 284 kts | 134° |
| 2026-05-07 13:16 | 37.82552 | 23.97133 | 6568 ft | 287 kts | 133° |
| 2026-05-07 13:16 | 37.81159 | 23.98949 | 6836 ft | 286 kts | 136° |
| 2026-05-07 13:16 | 37.79754 | 24.00711 | 6911 ft | 285 kts | 136° |
| 2026-05-07 13:17 | 37.78352 | 24.02469 | 6947 ft | 284 kts | 137° |
| 2026-05-07 13:17 | 37.76950 | 24.04198 | 6967 ft | 283 kts | 137° |
| 2026-05-07 13:17 | 37.75559 | 24.05928 | 6978 ft | 282 kts | 135° |
| 2026-05-07 13:17 | 37.74197 | 24.07794 | 7080 ft | 301 kts | 134° |
| 2026-05-07 13:18 | 37.72726 | 24.09708 | 7981 ft | 309 kts | 136° |
| 2026-05-07 13:18 | 37.71207 | 24.11642 | 9097 ft | 312 kts | 135° |
| 2026-05-07 13:18 | 37.69694 | 24.13554 | 10192 ft | 314 kts | 136° |
| 2026-05-07 13:18 | 37.68148 | 24.15480 | 11216 ft | 318 kts | 136° |
| 2026-05-07 13:19 | 37.66579 | 24.17425 | 12198 ft | 322 kts | 136° |
| 2026-05-07 13:19 | 37.65761 | 24.18435 | 12697 ft | 324 kts | 136° |
| 2026-05-07 13:19 | 37.65272 | 24.19036 | 12988 ft | 326 kts | 136° |
| 2026-05-07 13:19 | 37.63640 | 24.21042 | 13934 ft | 330 kts | 136° |
| 2026-05-07 13:20 | 37.62007 | 24.23044 | 14840 ft | 334 kts | 137° |
| 2026-05-07 13:20 | 37.60336 | 24.25091 | 15731 ft | 338 kts | 137° |
| 2026-05-07 13:20 | 37.58662 | 24.27138 | 16587 ft | 342 kts | 137° |
| 2026-05-07 13:20 | 37.56947 | 24.29233 | 17430 ft | 346 kts | 137° |
| 2026-05-07 13:21 | 37.55214 | 24.31351 | 18249 ft | 350 kts | 137° |
| 2026-05-07 13:21 | 37.53476 | 24.33475 | 19042 ft | 354 kts | 137° |
| 2026-05-07 13:21 | 37.51707 | 24.35636 | 19817 ft | 358 kts | 137° |
| 2026-05-07 13:21 | 37.49895 | 24.37850 | 20583 ft | 367 kts | 137° |
| 2026-05-07 13:22 | 37.48035 | 24.40119 | 21380 ft | 383 kts | 137° |
| 2026-05-07 13:22 | 37.46132 | 24.42444 | 22494 ft | 389 kts | 137° |
| 2026-05-07 13:22 | 37.44178 | 24.44831 | 23297 ft | 404 kts | 138° |
| 2026-05-07 13:22 | 37.42104 | 24.47359 | 23605 ft | 431 kts | 137° |
| 2026-05-07 13:23 | 37.39920 | 24.50028 | 23594 ft | 439 kts | 137° |
| 2026-05-07 13:23 | 37.37741 | 24.52690 | 23442 ft | 441 kts | 137° |
| 2026-05-07 13:23 | 37.35530 | 24.55392 | 23294 ft | 441 kts | 137° |
| 2026-05-07 13:23 | 37.33356 | 24.58047 | 23201 ft | 440 kts | 137° |
| 2026-05-07 13:24 | 37.31147 | 24.60743 | 23158 ft | 440 kts | 137° |
| 2026-05-07 13:24 | 37.28955 | 24.63416 | 23146 ft | 440 kts | 137° |
| 2026-05-07 13:24 | 37.26780 | 24.66069 | 23148 ft | 441 kts | 138° |
| 2026-05-07 13:24 | 37.24566 | 24.68765 | 23152 ft | 441 kts | 138° |
| 2026-05-07 13:25 | 37.22389 | 24.71417 | 23153 ft | 441 kts | 138° |
| 2026-05-07 13:25 | 37.20176 | 24.74110 | 23154 ft | 441 kts | 138° |
| 2026-05-07 13:25 | 37.17994 | 24.76762 | 23154 ft | 441 kts | 138° |
| 2026-05-07 13:25 | 37.15810 | 24.79415 | 23155 ft | 441 kts | 138° |
| 2026-05-07 13:26 | 37.13603 | 24.82094 | 23155 ft | 441 kts | 138° |
| 2026-05-07 13:26 | 37.11399 | 24.84766 | 23155 ft | 441 kts | 138° |
| 2026-05-07 13:26 | 37.09195 | 24.87437 | 23155 ft | 442 kts | 138° |
| 2026-05-07 13:26 | 37.07003 | 24.90091 | 23155 ft | 442 kts | 138° |
| 2026-05-07 13:27 | 37.04805 | 24.92750 | 23155 ft | 443 kts | 138° |
| 2026-05-07 13:27 | 37.02570 | 24.95452 | 23155 ft | 444 kts | 139° |
| 2026-05-07 13:27 | 37.00365 | 24.98116 | 23155 ft | 445 kts | 139° |
| 2026-05-07 13:27 | 36.98150 | 25.00788 | 23155 ft | 446 kts | 139° |
| 2026-05-07 13:28 | 36.95906 | 25.03492 | 23154 ft | 446 kts | 139° |
| 2026-05-07 13:28 | 36.93629 | 25.06114 | 23136 ft | 443 kts | 144° |
| 2026-05-07 13:28 | 36.91602 | 25.07784 | 23118 ft | 439 kts | 155° |
| 2026-05-07 13:28 | 36.88813 | 25.09211 | 23140 ft | 435 kts | 164° |
| 2026-05-07 13:29 | 36.87341 | 25.09832 | 23164 ft | 435 kts | 164° |
| 2026-05-07 13:29 | 36.84507 | 25.11095 | 23180 ft | 436 kts | 163° |
| 2026-05-07 13:29 | 36.81656 | 25.12310 | 23176 ft | 435 kts | 165° |
| 2026-05-07 13:29 | 36.78797 | 25.13484 | 23167 ft | 436 kts | 165° |
| 2026-05-07 13:30 | 36.75905 | 25.14705 | 23162 ft | 435 kts | 165° |
| 2026-05-07 13:30 | 36.73092 | 25.15964 | 23139 ft | 438 kts | 159° |
| 2026-05-07 13:30 | 36.70448 | 25.17923 | 23121 ft | 445 kts | 146° |
| 2026-05-07 13:30 | 36.68218 | 25.20626 | 23128 ft | 448 kts | 132° |
| 2026-05-07 13:31 | 36.66549 | 25.23888 | 23138 ft | 452 kts | 118° |
| 2026-05-07 13:31 | 36.65630 | 25.26948 | 23144 ft | 454 kts | 107° |
| 2026-05-07 13:31 | 36.65164 | 25.30811 | 23146 ft | 455 kts | 93° |
| 2026-05-07 13:31 | 36.65229 | 25.34719 | 23174 ft | 455 kts | 89° |
| 2026-05-07 13:32 | 36.64965 | 25.38637 | 23152 ft | 452 kts | 102° |
| 2026-05-07 13:32 | 36.64187 | 25.41825 | 23143 ft | 449 kts | 114° |
| 2026-05-07 13:32 | 36.62668 | 25.45208 | 23143 ft | 444 kts | 128° |
| 2026-05-07 13:32 | 36.60614 | 25.47994 | 23148 ft | 440 kts | 142° |
| 2026-05-07 13:33 | 36.58141 | 25.50227 | 23178 ft | 439 kts | 148° |
| 2026-05-07 13:33 | 36.55732 | 25.52506 | 23192 ft | 444 kts | 143° |
| 2026-05-07 13:33 | 36.53384 | 25.55013 | 23194 ft | 444 kts | 141° |
| 2026-05-07 13:33 | 36.51065 | 25.57556 | 23180 ft | 445 kts | 140° |
| 2026-05-07 13:34 | 36.48789 | 25.60160 | 23168 ft | 445 kts | 140° |
| 2026-05-07 13:34 | 36.44312 | 25.65391 | 23158 ft | 444 kts | 139° |
| 2026-05-07 13:34 | 36.42081 | 25.68037 | 23152 ft | 444 kts | 139° |
| 2026-05-07 13:35 | 36.39849 | 25.70697 | 23153 ft | 444 kts | 139° |
| 2026-05-07 13:35 | 36.37647 | 25.73331 | 23154 ft | 445 kts | 139° |
| 2026-05-07 13:35 | 36.35417 | 25.76000 | 23154 ft | 445 kts | 139° |
| 2026-05-07 13:35 | 36.33195 | 25.78664 | 23155 ft | 445 kts | 139° |
| 2026-05-07 13:36 | 36.31000 | 25.81295 | 23155 ft | 445 kts | 139° |
| 2026-05-07 13:36 | 36.28772 | 25.83965 | 23155 ft | 445 kts | 139° |
| 2026-05-07 13:36 | 36.26546 | 25.86633 | 23155 ft | 445 kts | 139° |
| 2026-05-07 13:36 | 36.24381 | 25.89373 | 23135 ft | 447 kts | 133° |
| 2026-05-07 13:37 | 36.22680 | 25.92548 | 23119 ft | 451 kts | 120° |
| 2026-05-07 13:37 | 36.21412 | 25.96104 | 23153 ft | 451 kts | 115° |
| 2026-05-07 13:37 | 36.20106 | 25.99624 | 23169 ft | 450 kts | 117° |
| 2026-05-07 13:37 | 36.18780 | 26.03146 | 23170 ft | 450 kts | 116° |
| 2026-05-07 13:38 | 36.17487 | 26.06629 | 23164 ft | 450 kts | 117° |
| 2026-05-07 13:38 | 36.16141 | 26.10156 | 23160 ft | 450 kts | 117° |
| 2026-05-07 13:38 | 36.14823 | 26.13666 | 23158 ft | 450 kts | 117° |
| 2026-05-07 13:38 | 36.13504 | 26.17129 | 23157 ft | 450 kts | 117° |
| 2026-05-07 13:39 | 36.12171 | 26.20639 | 23156 ft | 450 kts | 117° |
| 2026-05-07 13:39 | 36.10852 | 26.24101 | 23156 ft | 450 kts | 117° |
| 2026-05-07 13:39 | 36.09508 | 26.27622 | 23156 ft | 450 kts | 117° |
| 2026-05-07 13:39 | 36.08182 | 26.31094 | 23155 ft | 450 kts | 117° |
| 2026-05-07 13:40 | 36.06835 | 26.34616 | 23155 ft | 451 kts | 117° |
| 2026-05-07 13:40 | 36.05510 | 26.38076 | 23156 ft | 451 kts | 117° |
| 2026-05-07 13:40 | 36.04162 | 26.41591 | 23156 ft | 451 kts | 117° |
| 2026-05-07 13:40 | 36.02830 | 26.45063 | 23156 ft | 450 kts | 117° |
| 2026-05-07 13:41 | 36.01480 | 26.48576 | 23156 ft | 450 kts | 117° |
| 2026-05-07 13:41 | 36.00147 | 26.52043 | 23156 ft | 450 kts | 117° |
| 2026-05-07 13:41 | 35.98800 | 26.55539 | 23156 ft | 450 kts | 117° |
| 2026-05-07 13:41 | 35.97466 | 26.58999 | 23156 ft | 450 kts | 117° |
| 2026-05-07 13:42 | 35.96113 | 26.62496 | 23156 ft | 450 kts | 117° |
| 2026-05-07 13:42 | 35.94776 | 26.65954 | 23155 ft | 450 kts | 118° |
| 2026-05-07 13:42 | 35.93428 | 26.69446 | 23151 ft | 450 kts | 118° |
| 2026-05-07 13:42 | 35.92080 | 26.72938 | 23153 ft | 450 kts | 117° |
| 2026-05-07 13:43 | 35.90739 | 26.76424 | 23153 ft | 450 kts | 117° |
| 2026-05-07 13:43 | 35.89397 | 26.79875 | 23155 ft | 450 kts | 118° |
| 2026-05-07 13:43 | 35.88036 | 26.83360 | 23155 ft | 450 kts | 118° |
| 2026-05-07 13:43 | 35.86691 | 26.86831 | 23155 ft | 450 kts | 118° |
| 2026-05-07 13:44 | 35.85346 | 26.90283 | 23155 ft | 450 kts | 118° |
| 2026-05-07 13:44 | 35.83991 | 26.93750 | 23155 ft | 450 kts | 118° |
| 2026-05-07 13:44 | 35.82623 | 26.97213 | 23155 ft | 449 kts | 117° |
| 2026-05-07 13:44 | 35.81272 | 27.00696 | 23155 ft | 449 kts | 117° |
| 2026-05-07 13:45 | 35.79913 | 27.04128 | 23155 ft | 449 kts | 118° |
| 2026-05-07 13:45 | 35.78550 | 27.07610 | 23155 ft | 449 kts | 117° |
| 2026-05-07 13:45 | 35.77207 | 27.11026 | 23155 ft | 448 kts | 117° |
| 2026-05-07 13:45 | 35.75843 | 27.14491 | 23155 ft | 448 kts | 117° |
| 2026-05-07 13:46 | 35.74486 | 27.17939 | 23155 ft | 448 kts | 117° |
| 2026-05-07 13:46 | 35.73141 | 27.21352 | 23155 ft | 448 kts | 117° |
| 2026-05-07 13:46 | 35.71781 | 27.24803 | 23155 ft | 448 kts | 117° |
| 2026-05-07 13:46 | 35.70422 | 27.28245 | 23155 ft | 448 kts | 117° |
| 2026-05-07 13:47 | 35.69060 | 27.31690 | 23155 ft | 448 kts | 117° |
| 2026-05-07 13:47 | 35.67693 | 27.35143 | 23155 ft | 448 kts | 117° |
| 2026-05-07 13:47 | 35.66346 | 27.38543 | 23155 ft | 448 kts | 117° |
| 2026-05-07 13:47 | 35.64975 | 27.42002 | 23154 ft | 448 kts | 117° |
| 2026-05-07 13:48 | 35.63607 | 27.45448 | 23155 ft | 448 kts | 117° |
| 2026-05-07 13:48 | 35.62254 | 27.48854 | 23155 ft | 448 kts | 117° |
| 2026-05-07 13:48 | 35.60883 | 27.52303 | 23155 ft | 448 kts | 117° |
| 2026-05-07 13:48 | 35.59519 | 27.55727 | 23155 ft | 448 kts | 117° |
| 2026-05-07 13:49 | 35.58157 | 27.59145 | 23155 ft | 448 kts | 117° |
| 2026-05-07 13:49 | 35.56788 | 27.62576 | 23155 ft | 448 kts | 117° |
| 2026-05-07 13:49 | 35.55412 | 27.66019 | 23153 ft | 448 kts | 118° |
| 2026-05-07 13:49 | 35.54042 | 27.69452 | 23151 ft | 448 kts | 118° |
| 2026-05-07 13:50 | 35.52690 | 27.72830 | 23153 ft | 448 kts | 118° |
| 2026-05-07 13:50 | 35.51315 | 27.76264 | 23154 ft | 448 kts | 118° |
| 2026-05-07 13:50 | 35.49943 | 27.79684 | 23154 ft | 448 kts | 118° |
| 2026-05-07 13:50 | 35.48570 | 27.83104 | 23155 ft | 448 kts | 118° |
| 2026-05-07 13:51 | 35.47196 | 27.86522 | 23155 ft | 448 kts | 118° |
| 2026-05-07 13:51 | 35.45821 | 27.89942 | 23154 ft | 448 kts | 118° |
| 2026-05-07 13:51 | 35.44446 | 27.93355 | 23152 ft | 448 kts | 118° |
| 2026-05-07 13:51 | 35.43067 | 27.96774 | 23151 ft | 448 kts | 118° |
| 2026-05-07 13:52 | 35.41684 | 28.00199 | 23150 ft | 448 kts | 118° |
| 2026-05-07 13:52 | 35.40307 | 28.03610 | 23149 ft | 448 kts | 118° |
| 2026-05-07 13:52 | 35.38932 | 28.07009 | 23149 ft | 448 kts | 118° |
| 2026-05-07 13:52 | 35.37556 | 28.10409 | 23150 ft | 448 kts | 118° |
| 2026-05-07 13:53 | 35.36174 | 28.13817 | 23150 ft | 448 kts | 118° |
| 2026-05-07 13:53 | 35.34789 | 28.17234 | 23149 ft | 448 kts | 118° |
| 2026-05-07 13:53 | 35.33405 | 28.20639 | 23147 ft | 448 kts | 118° |
| 2026-05-07 13:53 | 35.32020 | 28.24042 | 23145 ft | 448 kts | 118° |
| 2026-05-07 13:54 | 35.30632 | 28.27452 | 23144 ft | 448 kts | 118° |
| 2026-05-07 13:54 | 35.29243 | 28.30866 | 23142 ft | 448 kts | 118° |
| 2026-05-07 13:54 | 35.27853 | 28.34287 | 23142 ft | 448 kts | 118° |
| 2026-05-07 13:54 | 35.26597 | 28.37772 | 23117 ft | 449 kts | 111° |
| 2026-05-07 13:55 | 35.25645 | 28.41385 | 23137 ft | 450 kts | 109° |
| 2026-05-07 13:55 | 35.24616 | 28.44984 | 23145 ft | 449 kts | 111° |
| 2026-05-07 13:55 | 35.23607 | 28.48589 | 23143 ft | 449 kts | 110° |
| 2026-05-07 13:55 | 35.22596 | 28.52197 | 23139 ft | 449 kts | 110° |
| 2026-05-07 13:56 | 35.21570 | 28.55797 | 23136 ft | 449 kts | 110° |
| 2026-05-07 13:56 | 35.20559 | 28.59399 | 23133 ft | 449 kts | 110° |
| 2026-05-07 13:56 | 35.19535 | 28.62993 | 23131 ft | 449 kts | 110° |
| 2026-05-07 13:56 | 35.18516 | 28.66599 | 23127 ft | 449 kts | 111° |
| 2026-05-07 13:57 | 35.17503 | 28.70163 | 23125 ft | 449 kts | 111° |
| 2026-05-07 13:57 | 35.16480 | 28.73759 | 23126 ft | 449 kts | 111° |
| 2026-05-07 13:57 | 35.15454 | 28.77358 | 23127 ft | 449 kts | 111° |
| 2026-05-07 13:57 | 35.14425 | 28.80962 | 23127 ft | 449 kts | 111° |
| 2026-05-07 13:58 | 35.13396 | 28.84565 | 23128 ft | 448 kts | 111° |
| 2026-05-07 13:58 | 35.12368 | 28.88157 | 23130 ft | 448 kts | 111° |
| 2026-05-07 13:58 | 35.11338 | 28.91754 | 23131 ft | 448 kts | 111° |
| 2026-05-07 13:58 | 35.10317 | 28.95312 | 23133 ft | 448 kts | 111° |
| 2026-05-07 13:59 | 35.09284 | 28.98906 | 23134 ft | 448 kts | 111° |
| 2026-05-07 13:59 | 35.08254 | 29.02487 | 23134 ft | 447 kts | 111° |
| 2026-05-07 13:59 | 35.07222 | 29.06070 | 23134 ft | 447 kts | 111° |
| 2026-05-07 13:59 | 35.06191 | 29.09643 | 23135 ft | 447 kts | 111° |
| 2026-05-07 14:00 | 35.05162 | 29.13205 | 23136 ft | 447 kts | 111° |
| 2026-05-07 14:00 | 35.04140 | 29.16742 | 23138 ft | 447 kts | 111° |
| 2026-05-07 14:00 | 35.03104 | 29.20313 | 23138 ft | 447 kts | 111° |
| 2026-05-07 14:00 | 35.02065 | 29.23895 | 23140 ft | 448 kts | 111° |
| 2026-05-07 14:01 | 35.01035 | 29.27450 | 23145 ft | 449 kts | 111° |
| 2026-05-07 14:01 | 34.99987 | 29.31064 | 23149 ft | 450 kts | 111° |
| 2026-05-07 14:01 | 34.98923 | 29.34631 | 23144 ft | 450 kts | 114° |
| 2026-05-07 14:01 | 34.97662 | 29.38110 | 23150 ft | 452 kts | 116° |
| 2026-05-07 14:02 | 34.96416 | 29.41664 | 23157 ft | 454 kts | 115° |
| 2026-05-07 14:02 | 34.95191 | 29.45157 | 23158 ft | 456 kts | 115° |
| 2026-05-07 14:02 | 34.93915 | 29.48747 | 23158 ft | 458 kts | 115° |
| 2026-05-07 14:02 | 34.92668 | 29.52312 | 23158 ft | 461 kts | 115° |
| 2026-05-07 14:03 | 34.91400 | 29.55886 | 23156 ft | 462 kts | 115° |
| 2026-05-07 14:03 | 34.90145 | 29.59453 | 23156 ft | 464 kts | 115° |
| 2026-05-07 14:03 | 34.88861 | 29.63083 | 23155 ft | 465 kts | 115° |
| 2026-05-07 14:03 | 34.87591 | 29.66677 | 23147 ft | 467 kts | 115° |
| 2026-05-07 14:04 | 34.86300 | 29.70335 | 23145 ft | 466 kts | 115° |
| 2026-05-07 14:04 | 34.85030 | 29.73928 | 23149 ft | 466 kts | 115° |
| 2026-05-07 14:04 | 34.83743 | 29.77561 | 23152 ft | 466 kts | 115° |
| 2026-05-07 14:04 | 34.82476 | 29.81130 | 23151 ft | 466 kts | 115° |
| 2026-05-07 14:05 | 34.81187 | 29.84753 | 23147 ft | 466 kts | 115° |
| 2026-05-07 14:05 | 34.79900 | 29.88361 | 23141 ft | 466 kts | 115° |
| 2026-05-07 14:05 | 34.78613 | 29.91978 | 23134 ft | 466 kts | 115° |
| 2026-05-07 14:05 | 34.77339 | 29.95567 | 23126 ft | 466 kts | 115° |
| 2026-05-07 14:06 | 34.76054 | 29.99186 | 23116 ft | 466 kts | 116° |
| 2026-05-07 14:06 | 34.74506 | 30.02628 | 23086 ft | 463 kts | 125° |
| 2026-05-07 14:06 | 34.72751 | 30.05925 | 23105 ft | 464 kts | 124° |
| 2026-05-07 14:06 | 34.71087 | 30.09250 | 23113 ft | 464 kts | 124° |
| 2026-05-07 14:07 | 34.69372 | 30.12574 | 23111 ft | 464 kts | 124° |
| 2026-05-07 14:07 | 34.67673 | 30.15912 | 23108 ft | 464 kts | 124° |
| 2026-05-07 14:07 | 34.65998 | 30.19201 | 23107 ft | 463 kts | 124° |
| 2026-05-07 14:07 | 34.64299 | 30.22518 | 23106 ft | 464 kts | 124° |
| 2026-05-07 14:08 | 34.62606 | 30.25840 | 23104 ft | 463 kts | 124° |
| 2026-05-07 14:08 | 34.60900 | 30.29173 | 23102 ft | 463 kts | 124° |
| 2026-05-07 14:08 | 34.59219 | 30.32459 | 23102 ft | 463 kts | 124° |
| 2026-05-07 14:08 | 34.57512 | 30.35795 | 23102 ft | 463 kts | 124° |
| 2026-05-07 14:09 | 34.55834 | 30.39072 | 23101 ft | 463 kts | 124° |
| 2026-05-07 14:09 | 34.54133 | 30.42394 | 23101 ft | 462 kts | 124° |
| 2026-05-07 14:09 | 34.52433 | 30.45698 | 23101 ft | 463 kts | 124° |
| 2026-05-07 14:09 | 34.50748 | 30.48987 | 23101 ft | 463 kts | 124° |
| 2026-05-07 14:10 | 34.49047 | 30.52294 | 23101 ft | 463 kts | 124° |
| 2026-05-07 14:10 | 34.47336 | 30.55618 | 23101 ft | 463 kts | 124° |
| 2026-05-07 14:10 | 34.45651 | 30.58890 | 23101 ft | 463 kts | 124° |
| 2026-05-07 14:10 | 34.43938 | 30.62215 | 23101 ft | 463 kts | 124° |
| 2026-05-07 14:11 | 34.42249 | 30.65487 | 23101 ft | 463 kts | 124° |
| 2026-05-07 14:11 | 34.40537 | 30.68807 | 23092 ft | 463 kts | 124° |
| 2026-05-07 14:11 | 34.38829 | 30.72115 | 23095 ft | 463 kts | 124° |
| 2026-05-07 14:11 | 34.37143 | 30.75374 | 23097 ft | 463 kts | 124° |
| 2026-05-07 14:12 | 34.35439 | 30.78667 | 23099 ft | 462 kts | 124° |
| 2026-05-07 14:12 | 34.33726 | 30.81967 | 23100 ft | 462 kts | 124° |
| 2026-05-07 14:12 | 34.32014 | 30.85268 | 23101 ft | 463 kts | 124° |
| 2026-05-07 14:12 | 34.30317 | 30.88536 | 23101 ft | 463 kts | 124° |
| 2026-05-07 14:13 | 34.28608 | 30.91825 | 23101 ft | 462 kts | 124° |
| 2026-05-07 14:13 | 34.26892 | 30.95128 | 23101 ft | 463 kts | 124° |
| 2026-05-07 14:13 | 34.25197 | 30.98382 | 23101 ft | 462 kts | 124° |
| 2026-05-07 14:13 | 34.23494 | 31.01644 | 23101 ft | 462 kts | 124° |
| 2026-05-07 14:14 | 34.21771 | 31.04948 | 23101 ft | 462 kts | 124° |
| 2026-05-07 14:14 | 34.20076 | 31.08195 | 23101 ft | 461 kts | 124° |
| 2026-05-07 14:14 | 34.18354 | 31.11487 | 23101 ft | 461 kts | 125° |
| 2026-05-07 14:14 | 34.16661 | 31.14723 | 23101 ft | 460 kts | 124° |
| 2026-05-07 14:15 | 34.14947 | 31.17998 | 23101 ft | 460 kts | 124° |
| 2026-05-07 14:15 | 34.13256 | 31.21227 | 23101 ft | 460 kts | 124° |
| 2026-05-07 14:15 | 34.11539 | 31.24503 | 23101 ft | 459 kts | 124° |
| 2026-05-07 14:15 | 34.09831 | 31.27754 | 23101 ft | 459 kts | 124° |
| 2026-05-07 14:16 | 34.08124 | 31.31007 | 23101 ft | 459 kts | 124° |
| 2026-05-07 14:16 | 34.06436 | 31.34215 | 23101 ft | 459 kts | 124° |
| 2026-05-07 14:16 | 34.04730 | 31.37457 | 23102 ft | 459 kts | 124° |
| 2026-05-07 14:16 | 34.03025 | 31.40691 | 23102 ft | 459 kts | 124° |
| 2026-05-07 14:17 | 34.01297 | 31.43966 | 23103 ft | 459 kts | 124° |
| 2026-05-07 14:17 | 33.99606 | 31.47169 | 23102 ft | 459 kts | 124° |
| 2026-05-07 14:17 | 33.97895 | 31.50409 | 23102 ft | 459 kts | 124° |
| 2026-05-07 14:17 | 33.96169 | 31.53671 | 23102 ft | 460 kts | 125° |
| 2026-05-07 14:18 | 33.94472 | 31.56876 | 23103 ft | 460 kts | 124° |
| 2026-05-07 14:18 | 33.92752 | 31.60121 | 23103 ft | 460 kts | 124° |
| 2026-05-07 14:18 | 33.91016 | 31.63399 | 23103 ft | 460 kts | 124° |
| 2026-05-07 14:18 | 33.89317 | 31.66602 | 23097 ft | 460 kts | 125° |
| 2026-05-07 14:19 | 33.87592 | 31.69854 | 23093 ft | 459 kts | 125° |
| 2026-05-07 14:19 | 33.85886 | 31.73062 | 23095 ft | 459 kts | 125° |
| 2026-05-07 14:19 | 33.84155 | 31.76318 | 23097 ft | 459 kts | 125° |
| 2026-05-07 14:19 | 33.82455 | 31.79510 | 23101 ft | 459 kts | 125° |
| 2026-05-07 14:20 | 33.80720 | 31.82761 | 23102 ft | 460 kts | 125° |
| 2026-05-07 14:20 | 33.78994 | 31.85999 | 23103 ft | 460 kts | 125° |
| 2026-05-07 14:20 | 33.77285 | 31.89201 | 23103 ft | 460 kts | 125° |
| 2026-05-07 14:20 | 33.75554 | 31.92443 | 23102 ft | 460 kts | 125° |
| 2026-05-07 14:21 | 33.73841 | 31.95645 | 23101 ft | 460 kts | 125° |
| 2026-05-07 14:21 | 33.72112 | 31.98873 | 23101 ft | 460 kts | 125° |
| 2026-05-07 14:21 | 33.70375 | 32.02108 | 23101 ft | 460 kts | 125° |
| 2026-05-07 14:21 | 33.68639 | 32.05350 | 23101 ft | 460 kts | 125° |
| 2026-05-07 14:22 | 33.66921 | 32.08544 | 23102 ft | 460 kts | 125° |
| 2026-05-07 14:22 | 33.65172 | 32.11801 | 23101 ft | 460 kts | 125° |
| 2026-05-07 14:22 | 33.63454 | 32.14993 | 23101 ft | 460 kts | 125° |
| 2026-05-07 14:22 | 33.61716 | 32.18220 | 23101 ft | 460 kts | 125° |
| 2026-05-07 14:23 | 33.59980 | 32.21442 | 23101 ft | 461 kts | 125° |
| 2026-05-07 14:23 | 33.58241 | 32.24663 | 23101 ft | 460 kts | 125° |
| 2026-05-07 14:23 | 33.56523 | 32.27844 | 23101 ft | 460 kts | 125° |
| 2026-05-07 14:23 | 33.54782 | 32.31068 | 23101 ft | 460 kts | 125° |
| 2026-05-07 14:24 | 33.53034 | 32.34301 | 23101 ft | 460 kts | 125° |
| 2026-05-07 14:24 | 33.51291 | 32.37523 | 23101 ft | 460 kts | 125° |
| 2026-05-07 14:24 | 33.49572 | 32.40696 | 23101 ft | 460 kts | 125° |
| 2026-05-07 14:24 | 33.47819 | 32.43926 | 23101 ft | 460 kts | 125° |
| 2026-05-07 14:25 | 33.46075 | 32.47144 | 23101 ft | 460 kts | 125° |
| 2026-05-07 14:25 | 33.44349 | 32.50319 | 23101 ft | 460 kts | 125° |
| 2026-05-07 14:25 | 33.42597 | 32.53546 | 23101 ft | 460 kts | 125° |
| 2026-05-07 14:25 | 33.40853 | 32.56752 | 23100 ft | 460 kts | 125° |
| 2026-05-07 14:26 | 33.39109 | 32.59957 | 23100 ft | 459 kts | 125° |
| 2026-05-07 14:26 | 33.37388 | 32.63113 | 23099 ft | 459 kts | 125° |
| 2026-05-07 14:26 | 33.35640 | 32.66315 | 23096 ft | 458 kts | 126° |
| 2026-05-07 14:26 | 33.33914 | 32.69485 | 23092 ft | 458 kts | 126° |
| 2026-05-07 14:27 | 33.32167 | 32.72684 | 23095 ft | 458 kts | 126° |
| 2026-05-07 14:27 | 33.30421 | 32.75883 | 23098 ft | 458 kts | 126° |
| 2026-05-07 14:27 | 33.28701 | 32.79026 | 23099 ft | 458 kts | 126° |
| 2026-05-07 14:27 | 33.26947 | 32.82225 | 23099 ft | 458 kts | 126° |
| 2026-05-07 14:28 | 33.25204 | 32.85405 | 23100 ft | 458 kts | 126° |
| 2026-05-07 14:28 | 33.23481 | 32.88546 | 23101 ft | 458 kts | 126° |
| 2026-05-07 14:28 | 33.21739 | 32.91719 | 23101 ft | 457 kts | 126° |
| 2026-05-07 14:28 | 33.19991 | 32.94897 | 23101 ft | 455 kts | 126° |
| 2026-05-07 14:29 | 33.18265 | 32.98034 | 23101 ft | 454 kts | 126° |
| 2026-05-07 14:29 | 33.16529 | 33.01185 | 23102 ft | 453 kts | 127° |
| 2026-05-07 14:29 | 33.14807 | 33.04311 | 23102 ft | 452 kts | 127° |
| 2026-05-07 14:29 | 33.13083 | 33.07438 | 23102 ft | 450 kts | 127° |
| 2026-05-07 14:30 | 33.11379 | 33.10526 | 23101 ft | 450 kts | 127° |
| 2026-05-07 14:30 | 33.09658 | 33.13641 | 23103 ft | 451 kts | 127° |
| 2026-05-07 14:30 | 33.07917 | 33.16787 | 23102 ft | 453 kts | 127° |
| 2026-05-07 14:30 | 33.06181 | 33.19918 | 23101 ft | 455 kts | 127° |
| 2026-05-07 14:31 | 33.04429 | 33.23077 | 23101 ft | 457 kts | 127° |
| 2026-05-07 14:31 | 33.02678 | 33.26229 | 23102 ft | 459 kts | 127° |
| 2026-05-07 14:31 | 33.00923 | 33.29383 | 23102 ft | 460 kts | 127° |
| 2026-05-07 14:31 | 32.99160 | 33.32553 | 23102 ft | 462 kts | 127° |
| 2026-05-07 14:32 | 32.97375 | 33.35757 | 23102 ft | 464 kts | 128° |
| 2026-05-07 14:32 | 32.95599 | 33.38940 | 23101 ft | 466 kts | 128° |
| 2026-05-07 14:32 | 32.93816 | 33.42140 | 23099 ft | 465 kts | 128° |
| 2026-05-07 14:32 | 32.92036 | 33.45331 | 23095 ft | 465 kts | 128° |
| 2026-05-07 14:33 | 32.90250 | 33.48524 | 23091 ft | 465 kts | 128° |
| 2026-05-07 14:33 | 32.88424 | 33.51766 | 23088 ft | 465 kts | 128° |
| 2026-05-07 14:33 | 32.86651 | 33.54946 | 23083 ft | 465 kts | 127° |
| 2026-05-07 14:33 | 32.84866 | 33.58160 | 23080 ft | 465 kts | 127° |
| 2026-05-07 14:34 | 32.83104 | 33.61353 | 23074 ft | 464 kts | 128° |
| 2026-05-07 14:34 | 32.81095 | 33.64319 | 23040 ft | 456 kts | 139° |
| 2026-05-07 14:34 | 32.78857 | 33.66946 | 23057 ft | 455 kts | 140° |
| 2026-05-07 14:34 | 32.76658 | 33.69678 | 23072 ft | 458 kts | 139° |
| 2026-05-07 14:35 | 32.74463 | 33.72358 | 23080 ft | 458 kts | 140° |
| 2026-05-07 14:35 | 32.72230 | 33.75098 | 23078 ft | 460 kts | 139° |
| 2026-05-07 14:35 | 32.70018 | 33.77826 | 23070 ft | 459 kts | 140° |
| 2026-05-07 14:35 | 32.67825 | 33.80512 | 23038 ft | 459 kts | 139° |
| 2026-05-07 14:36 | 32.65604 | 33.83239 | 22967 ft | 457 kts | 139° |
| 2026-05-07 14:36 | 32.63427 | 33.85899 | 22824 ft | 446 kts | 139° |
| 2026-05-07 14:36 | 32.61317 | 33.88491 | 22579 ft | 438 kts | 139° |
| 2026-05-07 14:36 | 32.59202 | 33.91099 | 22202 ft | 431 kts | 139° |
| 2026-05-07 14:37 | 32.57154 | 33.93646 | 21694 ft | 423 kts | 139° |
| 2026-05-07 14:37 | 32.53168 | 33.98613 | 20486 ft | 413 kts | 139° |
| 2026-05-07 14:37 | 32.51200 | 34.01058 | 19880 ft | 408 kts | 138° |
| 2026-05-07 14:38 | 32.49260 | 34.03473 | 19280 ft | 403 kts | 138° |
| 2026-05-07 14:38 | 32.47355 | 34.05848 | 18687 ft | 399 kts | 137° |
| 2026-05-07 14:38 | 32.45467 | 34.08217 | 18095 ft | 394 kts | 137° |
| 2026-05-07 14:38 | 32.43710 | 34.10670 | 17475 ft | 393 kts | 127° |
| 2026-05-07 14:39 | 32.42486 | 34.13540 | 16838 ft | 394 kts | 111° |
| 2026-05-07 14:39 | 32.41852 | 34.16668 | 16228 ft | 390 kts | 102° |
| 2026-05-07 14:39 | 32.41318 | 34.19798 | 15649 ft | 385 kts | 103° |
| 2026-05-07 14:39 | 32.40767 | 34.22834 | 15085 ft | 381 kts | 103° |
| 2026-05-07 14:40 | 32.40239 | 34.25883 | 14519 ft | 376 kts | 103° |
| 2026-05-07 14:40 | 32.39699 | 34.28895 | 13956 ft | 372 kts | 103° |
| 2026-05-07 14:40 | 32.39184 | 34.31871 | 13398 ft | 367 kts | 102° |
| 2026-05-07 14:40 | 32.38663 | 34.34773 | 12851 ft | 363 kts | 103° |
| 2026-05-07 14:41 | 32.38130 | 34.37675 | 12299 ft | 358 kts | 103° |
| 2026-05-07 14:41 | 32.37615 | 34.40541 | 11752 ft | 354 kts | 103° |
| 2026-05-07 14:41 | 32.37105 | 34.43335 | 11212 ft | 350 kts | 102° |
| 2026-05-07 14:41 | 32.36598 | 34.46130 | 10677 ft | 346 kts | 102° |
| 2026-05-07 14:42 | 32.36097 | 34.48886 | 10264 ft | 338 kts | 102° |
| 2026-05-07 14:42 | 32.35466 | 34.51507 | 9940 ft | 325 kts | 114° |
| 2026-05-07 14:42 | 32.34296 | 34.53673 | 9701 ft | 309 kts | 133° |
| 2026-05-07 14:42 | 32.32836 | 34.55452 | 9543 ft | 292 kts | 136° |
| 2026-05-07 14:43 | 32.31464 | 34.57166 | 9314 ft | 281 kts | 135° |
| 2026-05-07 14:43 | 32.30104 | 34.58835 | 9089 ft | 285 kts | 135° |
| 2026-05-07 14:43 | 32.28727 | 34.60534 | 8849 ft | 287 kts | 135° |
| 2026-05-07 14:43 | 32.27384 | 34.62194 | 8593 ft | 279 kts | 135° |
| 2026-05-07 14:44 | 32.26020 | 34.63878 | 8354 ft | 284 kts | 135° |
| 2026-05-07 14:44 | 32.24667 | 34.65550 | 8145 ft | 284 kts | 135° |
| 2026-05-07 14:44 | 32.23323 | 34.67213 | 7965 ft | 277 kts | 135° |
| 2026-05-07 14:44 | 32.21999 | 34.68852 | 7906 ft | 280 kts | 135° |
| 2026-05-07 14:45 | 32.20639 | 34.70532 | 7772 ft | 285 kts | 136° |
| 2026-05-07 14:45 | 32.19257 | 34.72210 | 7397 ft | 286 kts | 135° |
| 2026-05-07 14:45 | 32.17889 | 34.73889 | 6947 ft | 284 kts | 135° |
| 2026-05-07 14:45 | 32.16513 | 34.75516 | 6572 ft | 277 kts | 141° |
| 2026-05-07 14:46 | 32.14866 | 34.76661 | 5977 ft | 277 kts | 164° |
| 2026-05-07 14:46 | 32.13006 | 34.77027 | 5480 ft | 271 kts | 182° |
| 2026-05-07 14:46 | 32.11173 | 34.77032 | 5220 ft | 261 kts | 182° |
| 2026-05-07 14:46 | 32.09398 | 34.77094 | 5069 ft | 247 kts | 182° |
| 2026-05-07 14:47 | 32.07752 | 34.77130 | 4974 ft | 230 kts | 182° |
| 2026-05-07 14:47 | 32.06190 | 34.77265 | 4890 ft | 222 kts | 168° |
| 2026-05-07 14:47 | 32.04811 | 34.77979 | 4913 ft | 214 kts | 153° |
| 2026-05-07 14:47 | 32.03515 | 34.78812 | 4923 ft | 211 kts | 155° |
| 2026-05-07 14:48 | 32.02221 | 34.79617 | 4929 ft | 210 kts | 154° |
| 2026-05-07 14:48 | 32.00934 | 34.80432 | 4948 ft | 210 kts | 154° |
| 2026-05-07 14:48 | 31.99650 | 34.81240 | 4972 ft | 210 kts | 154° |
| 2026-05-07 14:48 | 31.98443 | 34.82209 | 4964 ft | 212 kts | 135° |
| 2026-05-07 14:49 | 31.97465 | 34.83530 | 4996 ft | 213 kts | 131° |
| 2026-05-07 14:49 | 31.96493 | 34.84839 | 5007 ft | 213 kts | 133° |
| 2026-05-07 14:49 | 31.95525 | 34.86149 | 5012 ft | 213 kts | 132° |
| 2026-05-07 14:49 | 31.94558 | 34.87454 | 5012 ft | 213 kts | 133° |
| 2026-05-07 14:50 | 31.93571 | 34.88786 | 5006 ft | 213 kts | 133° |
| 2026-05-07 14:50 | 31.92608 | 34.90086 | 5002 ft | 213 kts | 133° |
| 2026-05-07 14:50 | 31.91622 | 34.91415 | 5001 ft | 214 kts | 133° |
| 2026-05-07 14:50 | 31.90651 | 34.92727 | 5001 ft | 214 kts | 133° |
| 2026-05-07 14:51 | 31.89681 | 34.94037 | 5000 ft | 214 kts | 133° |
| 2026-05-07 14:51 | 31.88781 | 34.95443 | 4987 ft | 215 kts | 121° |
| 2026-05-07 14:51 | 31.88032 | 34.96974 | 5001 ft | 215 kts | 121° |
| 2026-05-07 14:51 | 31.87273 | 34.98470 | 4969 ft | 217 kts | 122° |
| 2026-05-07 14:52 | 31.86509 | 34.99999 | 4852 ft | 215 kts | 122° |
| 2026-05-07 14:52 | 31.85746 | 35.01517 | 4787 ft | 215 kts | 122° |
| 2026-05-07 14:52 | 31.84992 | 35.03017 | 4763 ft | 215 kts | 122° |
| 2026-05-07 14:52 | 31.84228 | 35.04540 | 4743 ft | 215 kts | 121° |
| 2026-05-07 14:53 | 31.83673 | 35.06195 | 4409 ft | 223 kts | 97° |
| 2026-05-07 14:53 | 31.83776 | 35.07950 | 4082 ft | 208 kts | 67° |
| 2026-05-07 14:53 | 31.84391 | 35.09409 | 3936 ft | 196 kts | 55° |
| 2026-05-07 14:53 | 31.85055 | 35.10806 | 3933 ft | 200 kts | 55° |
| 2026-05-07 14:54 | 31.85971 | 35.12048 | 3601 ft | 203 kts | 28° |
| 2026-05-07 14:54 | 31.87219 | 35.12593 | 3288 ft | 182 kts | 358° |
| 2026-05-07 14:54 | 31.88361 | 35.12312 | 3135 ft | 168 kts | 326° |
| 2026-05-07 14:54 | 31.89146 | 35.11325 | 3158 ft | 169 kts | 295° |
| 2026-05-07 14:55 | 31.89629 | 35.10052 | 3231 ft | 171 kts | 298° |
| 2026-05-07 14:55 | 31.90215 | 35.08806 | 3242 ft | 172 kts | 298° |
| 2026-05-07 14:55 | 31.90771 | 35.07581 | 3227 ft | 171 kts | 300° |
| 2026-05-07 14:55 | 31.91392 | 35.06395 | 3223 ft | 172 kts | 301° |
| 2026-05-07 14:56 | 31.92013 | 35.05180 | 3222 ft | 172 kts | 301° |
| 2026-05-07 14:56 | 31.92631 | 35.03992 | 3218 ft | 172 kts | 301° |
| 2026-05-07 14:56 | 31.93258 | 35.02789 | 3297 ft | 169 kts | 301° |
| 2026-05-07 14:56 | 31.93874 | 35.01612 | 3331 ft | 168 kts | 302° |
| 2026-05-07 14:57 | 31.94480 | 35.00452 | 3218 ft | 162 kts | 301° |
| 2026-05-07 14:57 | 31.95037 | 34.99337 | 2952 ft | 158 kts | 300° |
| 2026-05-07 14:57 | 31.95567 | 34.98227 | 2560 ft | 155 kts | 299° |
| 2026-05-07 14:57 | 31.96059 | 34.97140 | 2268 ft | 142 kts | 300° |
| 2026-05-07 14:58 | 31.96527 | 34.96156 | 2069 ft | 137 kts | 301° |
| 2026-05-07 14:58 | 31.96997 | 34.95188 | 1764 ft | 136 kts | 302° |
| 2026-05-07 14:58 | 31.97476 | 34.94254 | 1437 ft | 133 kts | 303° |
| 2026-05-07 14:58 | 31.97960 | 34.93329 | 1149 ft | 133 kts | 304° |
| 2026-05-07 14:59 | 31.98452 | 34.92412 | 896 ft | 132 kts | 304° |
| 2026-05-07 14:59 | 31.98935 | 34.91491 | 639 ft | 133 kts | 304° |
| 2026-05-07 14:59 | 31.99414 | 34.90569 | 388 ft | 131 kts | 304° |
| 2026-05-07 14:59 | 31.99879 | 34.89660 | 215 ft | 131 kts | 304° |
| 2026-05-07 15:00 | 32.00356 | 34.88737 | 153 ft | 128 kts | 304° |
| 2026-05-07 15:00 | 32.00731 | 34.88017 | 145 ft | 68 kts | 301° |
| 2026-05-07 15:00 | 32.00852 | 34.87784 | 145 ft | 0 kts | 302° |
| 2026-05-07 15:00 | 32.00860 | 34.87769 | 145 ft | 18 kts | 301° |
| 2026-05-07 15:01 | 32.01000 | 34.87501 | 145 ft | 43 kts | 299° |
| 2026-05-07 15:01 | 32.01065 | 34.87211 | 145 ft | 20 kts | 271° |
| 2026-05-07 15:01 | 32.01066 | 34.87162 | 145 ft | 0 kts | 271° |
| 2026-05-07 15:02 | 32.01066 | 34.87161 | 145 ft | 0 kts | 271° |
| 2026-05-07 15:02 | 32.01066 | 34.87149 | 145 ft | 2 kts | 271° |
| 2026-05-07 15:03 | 32.01065 | 34.87114 | 145 ft | 5 kts | 266° |
| 2026-05-07 15:03 | 32.01053 | 34.87064 | 145 ft | 7 kts | 227° |
| 2026-05-07 15:03 | 32.01007 | 34.87069 | 145 ft | 9 kts | 135° |
| 2026-05-07 15:03 | 32.00997 | 34.87082 | 145 ft | 1 kts | 131° |
| 2026-05-07 15:04 | 32.00980 | 34.87101 | 145 ft | 4 kts | 150° |
| 2026-05-07 15:04 | 32.00948 | 34.87104 | 145 ft | 5 kts | 185° |
| 2026-05-07 15:04 | 32.00906 | 34.87111 | 145 ft | 7 kts | 152° |
| 2026-05-07 15:04 | 32.00880 | 34.87143 | 145 ft | 1 kts | 120° |
| 2026-05-07 15:05 | 32.00875 | 34.87154 | 145 ft | 2 kts | 117° |
| 2026-05-07 15:05 | 32.00861 | 34.87183 | 145 ft | 5 kts | 120° |
| 2026-05-07 15:05 | 32.00837 | 34.87229 | 145 ft | 7 kts | 122° |
| 2026-05-07 15:05 | 32.00803 | 34.87292 | 145 ft | 11 kts | 123° |
| 2026-05-07 15:06 | 32.00751 | 34.87388 | 145 ft | 16 kts | 121° |
| 2026-05-07 15:06 | 32.00695 | 34.87499 | 145 ft | 12 kts | 121° |
| 2026-05-07 15:06 | 32.00656 | 34.87574 | 145 ft | 8 kts | 121° |
| 2026-05-07 15:06 | 32.00630 | 34.87624 | 145 ft | 3 kts | 121° |
| 2026-05-07 15:07 | 32.00609 | 34.87666 | 145 ft | 8 kts | 121° |
| 2026-05-07 15:07 | 32.00568 | 34.87743 | 145 ft | 13 kts | 124° |
| 2026-05-07 15:07 | 32.00523 | 34.87824 | 145 ft | 10 kts | 134° |
| 2026-05-07 15:07 | 32.00458 | 34.87823 | 145 ft | 10 kts | 216° |
| 2026-05-07 15:08 | 32.00412 | 34.87791 | 145 ft | 6 kts | 211° |
| 2026-05-07 15:08 | 32.00362 | 34.87756 | 145 ft | 10 kts | 210° |
| 2026-05-07 15:08 | 32.00301 | 34.87717 | 145 ft | 8 kts | 210° |
| 2026-05-07 15:08 | 32.00261 | 34.87685 | 145 ft | 8 kts | 214° |
| 2026-05-07 15:09 | 32.00195 | 34.87635 | 145 ft | 13 kts | 211° |
| 2026-05-07 15:09 | 32.00122 | 34.87582 | 145 ft | 12 kts | 212° |
| 2026-05-07 15:09 | 32.00053 | 34.87532 | 145 ft | 11 kts | 212° |
| 2026-05-07 15:09 | 32.00032 | 34.87471 | 145 ft | 8 kts | 305° |
| 2026-05-07 15:10 | 32.00059 | 34.87457 | 145 ft | 3 kts | 347° |
| 2026-05-07 15:10 | 32.00071 | 34.87454 | 145 ft | 0 kts | 344° |
| 2026-05-07 15:10 | 32.00082 | 34.87450 | 145 ft | 1 kts | 344° |
| 2026-05-07 15:10 | 32.00091 | 34.87447 | 145 ft | 0 kts | 344° |